createdAt,value
2023-10-22T00:02:04.553Z,15.78
2023-10-22T00:05:08.373Z,15.79
2023-10-22T00:08:10.718Z,15.79
2023-10-22T00:11:13.432Z,15.77
2023-10-22T00:14:15.896Z,15.70
2023-10-22T00:17:18.613Z,15.69
2023-10-22T00:20:21.306Z,15.65
2023-10-22T00:23:23.971Z,15.65
2023-10-22T00:26:26.285Z,15.63
2023-10-22T00:29:28.961Z,15.62
2023-10-22T00:32:31.502Z,15.62
2023-10-22T00:35:34.395Z,15.60
2023-10-22T00:38:36.933Z,15.58
2023-10-22T00:41:39.652Z,15.58
2023-10-22T00:44:42.265Z,15.58
2023-10-22T00:47:45.075Z,15.56
2023-10-22T00:50:47.719Z,15.51
2023-10-22T00:53:51.790Z,15.50
2023-10-22T00:56:54.709Z,15.46
2023-10-22T00:59:57.563Z,15.44
2023-10-22T01:03:01.713Z,15.42
2023-10-22T01:06:05.515Z,15.42
2023-10-22T01:09:11.232Z,15.46
2023-10-22T01:12:14.210Z,15.42
2023-10-22T01:15:17.116Z,15.46
2023-10-22T01:18:20.148Z,15.44
2023-10-22T01:21:25.965Z,15.51
2023-10-22T01:24:32.807Z,15.50
2023-10-22T01:27:35.912Z,15.51
2023-10-22T01:30:39.338Z,15.49
2023-10-22T01:33:42.067Z,15.53
2023-10-22T01:36:46.347Z,15.51
2023-10-22T01:39:48.782Z,15.51
2023-10-22T01:42:52.753Z,15.54
2023-10-22T01:45:55.558Z,15.58
2023-10-22T01:48:58.392Z,15.62
2023-10-22T01:52:00.803Z,15.65
2023-10-22T01:55:03.564Z,15.64
2023-10-22T01:58:06.288Z,15.59
2023-10-22T02:01:09.301Z,15.58
2023-10-22T02:04:13.422Z,15.61
2023-10-22T02:07:16.065Z,15.56
2023-10-22T02:10:18.950Z,15.59
2023-10-22T02:13:21.399Z,15.52
2023-10-22T02:16:25.384Z,15.34
2023-10-22T02:19:28.359Z,15.20
2023-10-22T02:22:31.574Z,15.04
2023-10-22T02:25:33.933Z,14.94
2023-10-22T02:28:36.585Z,14.82
2023-10-22T02:31:38.938Z,14.74
2023-10-22T02:34:41.850Z,14.71
2023-10-22T02:37:44.283Z,14.69
2023-10-22T02:40:50.832Z,14.67
2023-10-22T02:43:53.297Z,14.62
2023-10-22T02:46:56.069Z,14.51
2023-10-22T02:49:58.564Z,14.36
2023-10-22T02:53:01.267Z,14.23
2023-10-22T02:56:03.734Z,14.23
2023-10-22T02:59:06.594Z,14.16
2023-10-22T03:02:09.077Z,14.09
2023-10-22T03:05:11.722Z,14.03
2023-10-22T03:08:14.198Z,13.95
2023-10-22T03:11:18.137Z,13.91
2023-10-22T03:14:21.700Z,13.81
2023-10-22T03:17:24.543Z,13.73
2023-10-22T03:20:27.107Z,13.67
2023-10-22T03:23:29.870Z,13.62
2023-10-22T03:26:33.239Z,13.61
2023-10-22T03:29:36.023Z,13.57
2023-10-22T03:32:39.962Z,13.58
2023-10-22T03:35:42.789Z,13.56
2023-10-22T03:38:45.409Z,13.50
2023-10-22T03:41:48.093Z,13.46
2023-10-22T03:44:50.618Z,13.44
2023-10-22T03:47:53.553Z,13.33
2023-10-22T03:50:56.530Z,13.26
2023-10-22T03:53:59.651Z,13.30
2023-10-22T03:57:02.104Z,13.25
2023-10-22T04:00:08.524Z,13.23
2023-10-22T04:03:13.905Z,13.27
2023-10-22T04:06:16.626Z,13.30
2023-10-22T04:09:19.043Z,13.35
2023-10-22T04:12:23.256Z,13.38
2023-10-22T04:15:25.611Z,13.42
2023-10-22T04:18:28.405Z,13.45
2023-10-22T04:21:30.907Z,13.49
2023-10-22T04:24:33.687Z,13.43
2023-10-22T04:27:36.129Z,13.43
2023-10-22T04:30:39.720Z,13.46
2023-10-22T04:33:42.183Z,13.44
2023-10-22T04:36:44.902Z,13.45
2023-10-22T04:39:47.268Z,13.42
2023-10-22T04:42:49.970Z,13.34
2023-10-22T04:45:52.378Z,13.30
2023-10-22T04:48:55.633Z,13.28
2023-10-22T04:51:58.048Z,13.25
2023-10-22T04:55:01.450Z,13.31
2023-10-22T04:58:04.108Z,13.27
2023-10-22T05:01:06.754Z,13.30
2023-10-22T05:04:09.221Z,13.35
2023-10-22T05:07:11.941Z,13.44
2023-10-22T05:10:15.253Z,13.43
2023-10-22T05:13:17.902Z,13.45
2023-10-22T05:16:20.390Z,13.41
2023-10-22T05:19:23.072Z,13.49
2023-10-22T05:22:25.509Z,13.50
2023-10-22T05:25:28.320Z,13.51
2023-10-22T05:28:30.677Z,13.48
2023-10-22T05:31:33.406Z,13.44
2023-10-22T05:34:35.954Z,13.53
2023-10-22T05:37:38.682Z,13.58
2023-10-22T05:40:41.045Z,13.57
2023-10-22T05:43:43.693Z,13.53
2023-10-22T05:46:46.092Z,13.47
2023-10-22T05:49:49.015Z,13.29
2023-10-22T05:52:51.947Z,13.19
2023-10-22T05:56:00.502Z,13.23
2023-10-22T05:59:05.934Z,13.30
2023-10-22T06:02:08.626Z,13.38
2023-10-22T06:05:22.959Z,13.51
2023-10-22T06:08:26.554Z,13.37
2023-10-22T06:11:29.223Z,13.13
2023-10-22T06:14:31.587Z,13.01
2023-10-22T06:17:34.326Z,13.21
2023-10-22T06:20:37.449Z,13.21
2023-10-22T06:23:40.582Z,13.16
2023-10-22T06:26:43.119Z,13.23
2023-10-22T06:29:49.646Z,13.21
2023-10-22T06:32:52.919Z,13.31
2023-10-22T06:35:55.626Z,13.20
2023-10-22T06:38:58.054Z,12.86
2023-10-22T06:42:02.468Z,12.66
2023-10-22T06:45:06.753Z,12.59
2023-10-22T06:48:09.509Z,12.55
2023-10-22T06:51:13.152Z,12.49
2023-10-22T06:54:16.003Z,12.49
2023-10-22T06:57:18.508Z,12.63
2023-10-22T07:00:21.616Z,12.92
2023-10-22T07:03:24.579Z,13.02
2023-10-22T07:06:27.352Z,13.05
2023-10-22T07:09:29.712Z,13.10
2023-10-22T07:12:32.410Z,13.13
2023-10-22T07:15:34.782Z,13.20
2023-10-22T07:18:37.581Z,13.21
2023-10-22T07:21:39.976Z,13.27
2023-10-22T07:24:42.607Z,13.32
2023-10-22T07:27:45.028Z,13.40
2023-10-22T07:30:48.808Z,13.57
2023-10-22T07:33:52.461Z,13.79
2023-10-22T07:36:55.192Z,14.20
2023-10-22T07:39:58.319Z,14.65
2023-10-22T07:43:01.070Z,16.03
2023-10-22T07:46:03.556Z,16.15
2023-10-22T07:49:06.301Z,16.12
2023-10-22T07:52:08.687Z,15.71
2023-10-22T07:55:11.371Z,15.65
2023-10-22T07:58:13.778Z,15.60
2023-10-22T08:01:16.516Z,17.12
2023-10-22T08:04:19.253Z,18.11
2023-10-22T08:07:22.453Z,17.42
2023-10-22T08:10:25.070Z,17.56
2023-10-22T08:13:27.837Z,18.95
2023-10-22T08:16:30.530Z,19.43
2023-10-22T08:19:32.889Z,20.19
2023-10-22T08:22:35.601Z,20.20
2023-10-22T08:25:38.259Z,19.78
2023-10-22T08:28:40.911Z,19.24
2023-10-22T08:31:43.360Z,19.02
2023-10-22T08:34:46.064Z,20.84
2023-10-22T08:37:48.767Z,20.00
2023-10-22T08:40:51.671Z,18.95
2023-10-22T08:43:54.096Z,18.32
2023-10-22T08:46:57.171Z,17.80
2023-10-22T08:50:00.376Z,17.34
2023-10-22T08:53:03.035Z,18.87
2023-10-22T08:56:05.573Z,19.99
2023-10-22T08:59:09.859Z,18.61
2023-10-22T09:02:13.693Z,17.76
2023-10-22T09:05:16.345Z,17.05
2023-10-22T09:08:18.872Z,16.71
2023-10-22T09:11:21.791Z,16.45
2023-10-22T09:14:24.749Z,16.38
2023-10-22T09:17:27.446Z,16.38
2023-10-22T09:20:31.262Z,16.38
2023-10-22T09:23:33.916Z,16.46
2023-10-22T09:26:49.788Z,16.56
2023-10-22T09:29:54.259Z,17.02
2023-10-22T09:32:56.801Z,16.90
2023-10-22T09:36:02.734Z,16.75
2023-10-22T09:39:06.100Z,16.68
2023-10-22T09:42:16.735Z,16.70
2023-10-22T09:45:21.045Z,16.84
2023-10-22T09:48:24.709Z,16.99
2023-10-22T09:51:35.880Z,16.98
2023-10-22T09:54:40.461Z,17.20
2023-10-22T09:57:44.842Z,17.14
2023-10-22T10:00:51.577Z,17.31
2023-10-22T10:03:58.926Z,17.13
2023-10-22T10:07:04.925Z,17.16
2023-10-22T10:10:08.409Z,16.91
2023-10-22T10:13:10.808Z,16.91
2023-10-22T10:16:13.520Z,16.74
2023-10-22T10:19:22.911Z,16.71
2023-10-22T10:22:40.956Z,16.55
2023-10-22T10:25:44.136Z,16.33
2023-10-22T10:28:51.786Z,16.32
2023-10-22T10:31:56.371Z,16.26
2023-10-22T10:35:02.081Z,16.05
2023-10-22T10:38:16.773Z,15.81
2023-10-22T10:41:54.294Z,15.83
2023-10-22T10:44:57.087Z,15.90
2023-10-22T10:48:00.054Z,15.93
2023-10-22T10:51:19.193Z,15.85
2023-10-22T10:54:22.089Z,15.87
2023-10-22T10:57:38.081Z,15.84
2023-10-22T11:00:50.858Z,15.92
2023-10-22T11:04:08.057Z,15.99
2023-10-22T11:07:25.113Z,16.02
2023-10-22T11:10:32.348Z,16.07
2023-10-22T11:13:35.064Z,16.11
2023-10-22T11:16:51.449Z,16.16
2023-10-22T11:19:54.294Z,16.11
2023-10-22T11:22:57.198Z,16.22
2023-10-22T11:25:59.890Z,16.09
2023-10-22T11:29:02.304Z,16.26
2023-10-22T11:32:07.364Z,16.22
2023-10-22T11:35:10.040Z,16.22
2023-10-22T11:38:22.283Z,16.17
2023-10-22T11:41:24.636Z,16.17
2023-10-22T11:44:37.823Z,16.20
2023-10-22T11:47:40.681Z,16.26
2023-10-22T11:50:56.466Z,16.31
2023-10-22T11:54:00.680Z,16.36
2023-10-22T11:57:03.636Z,16.49
2023-10-22T12:00:07.501Z,16.74
2023-10-22T12:03:10.234Z,16.77
2023-10-22T12:06:12.855Z,16.92
2023-10-22T12:09:15.634Z,17.04
2023-10-22T12:12:18.081Z,17.07
2023-10-22T12:15:21.452Z,17.08
2023-10-22T12:18:24.801Z,17.14
2023-10-22T12:21:28.154Z,17.16
2023-10-22T12:24:30.560Z,17.12
2023-10-22T12:27:33.457Z,17.04
2023-10-22T12:30:36.097Z,17.06
2023-10-22T12:33:39.682Z,17.16
2023-10-22T12:36:42.217Z,17.18
2023-10-22T12:39:44.964Z,17.35
2023-10-22T12:42:47.615Z,17.44
2023-10-22T12:45:50.898Z,17.46
2023-10-22T12:48:53.889Z,17.64
2023-10-22T12:51:56.620Z,17.66
2023-10-22T12:54:59.600Z,17.71
2023-10-22T12:58:02.261Z,17.80
2023-10-22T13:01:05.879Z,17.90
2023-10-22T13:04:08.671Z,17.89
2023-10-22T13:07:12.163Z,17.94
2023-10-22T13:10:14.884Z,18.00
2023-10-22T13:13:17.378Z,17.97
2023-10-22T13:16:20.191Z,18.03
2023-10-22T13:19:23.646Z,17.99
2023-10-22T13:22:26.328Z,17.89
2023-10-22T13:25:28.738Z,17.90
2023-10-22T13:28:31.538Z,17.80
2023-10-22T13:31:37.400Z,17.64
2023-10-22T13:34:40.360Z,17.55
2023-10-22T13:37:43.087Z,17.43
2023-10-22T13:40:45.965Z,17.27
2023-10-22T13:43:48.332Z,17.11
2023-10-22T13:46:50.985Z,17.00
2023-10-22T13:49:53.407Z,16.94
2023-10-22T13:52:56.695Z,16.87
2023-10-22T13:55:59.890Z,16.81
2023-10-22T13:59:02.588Z,16.76
2023-10-22T14:02:04.967Z,16.69
2023-10-22T14:05:11.165Z,16.67
2023-10-22T14:08:13.580Z,16.75
2023-10-22T14:11:16.587Z,16.81
2023-10-22T14:14:19.392Z,16.90
2023-10-22T14:17:22.110Z,16.95
2023-10-22T14:20:26.601Z,17.02
2023-10-22T14:23:29.209Z,17.08
2023-10-22T14:26:32.144Z,17.07
2023-10-22T14:29:34.838Z,17.04
2023-10-22T14:32:37.356Z,17.03
2023-10-22T14:35:40.086Z,17.02
2023-10-22T14:38:42.495Z,16.98
2023-10-22T14:41:45.118Z,16.94
2023-10-22T14:44:47.473Z,16.79
2023-10-22T14:47:50.189Z,16.71
2023-10-22T14:50:54.295Z,16.58
2023-10-22T14:53:56.992Z,16.36
2023-10-22T14:56:59.369Z,16.15
2023-10-22T15:00:02.158Z,15.89
2023-10-22T15:03:04.890Z,15.72
2023-10-22T15:06:07.794Z,15.61
2023-10-22T15:09:10.332Z,15.48
2023-10-22T15:12:13.085Z,15.36
2023-10-22T15:15:15.596Z,15.29
2023-10-22T15:18:18.434Z,15.15
2023-10-22T15:21:20.956Z,14.99
2023-10-22T15:24:23.651Z,14.83
2023-10-22T15:27:26.202Z,14.68
2023-10-22T15:30:32.955Z,14.52
2023-10-22T15:33:35.373Z,14.37
2023-10-22T15:36:38.165Z,14.17
2023-10-22T15:39:40.934Z,14.05
2023-10-22T15:42:44.411Z,14.00
2023-10-22T15:45:47.331Z,14.05
2023-10-22T15:48:50.589Z,14.08
2023-10-22T15:51:55.504Z,14.08
2023-10-22T15:54:58.143Z,13.98
2023-10-22T15:58:00.980Z,13.82
2023-10-22T16:01:05.191Z,13.72
2023-10-22T16:04:08.561Z,13.65
2023-10-22T16:07:11.016Z,13.55
2023-10-22T16:10:14.511Z,13.38
2023-10-22T16:13:16.879Z,13.27
2023-10-22T16:16:19.562Z,13.16
2023-10-22T16:19:22.095Z,13.07
2023-10-22T16:25:50.467Z,12.88
2023-10-22T16:29:20.669Z,12.75
2023-10-22T16:32:37.754Z,12.58
2023-10-22T16:36:00.908Z,12.41
2023-10-22T16:39:14.959Z,12.26
2023-10-22T16:49:40.768Z,11.97
2023-10-22T16:52:57.064Z,11.88
2023-10-22T16:56:06.123Z,11.98
2023-10-22T16:59:08.453Z,12.16
2023-10-22T17:12:11.019Z,11.83
2023-10-22T17:15:13.826Z,11.75
2023-10-22T17:18:16.428Z,11.68
2023-10-22T17:21:19.201Z,11.57
2023-10-22T17:24:21.973Z,11.51
2023-10-22T17:27:27.040Z,11.34
2023-10-22T17:30:30.556Z,11.39
2023-10-22T17:33:42.898Z,11.26
2023-10-22T17:36:55.547Z,11.19
2023-10-22T17:39:58.663Z,11.28
2023-10-22T17:43:01.085Z,11.26
2023-10-22T18:04:39.990Z,10.70
2023-10-22T18:11:23.349Z,10.59
2023-10-22T18:14:42.239Z,10.60
2023-10-22T18:21:07.360Z,10.36
2023-10-22T18:42:14.666Z,10.17
2023-10-22T18:46:00.796Z,10.04
2023-10-22T18:53:28.885Z,9.91
2023-10-22T19:03:15.104Z,9.78
2023-10-22T19:06:45.141Z,9.87
2023-10-22T19:09:47.746Z,9.92
2023-10-22T19:12:50.773Z,9.85
2023-10-22T19:15:53.458Z,9.80
2023-10-22T19:18:56.485Z,9.80
2023-10-22T19:22:01.053Z,9.83
2023-10-22T19:25:05.639Z,9.87
2023-10-22T19:28:08.527Z,9.81
2023-10-22T19:31:12.872Z,9.77
2023-10-22T19:34:15.787Z,9.69
2023-10-22T19:37:18.620Z,9.63
2023-10-22T19:40:21.010Z,9.58
2023-10-22T19:43:24.571Z,9.60
2023-10-22T19:46:27.092Z,9.57
2023-10-22T19:49:30.069Z,9.51
2023-10-22T19:52:41.106Z,9.40
2023-10-22T19:55:44.678Z,9.40
2023-10-22T19:58:47.474Z,9.29
2023-10-22T20:01:54.905Z,9.36
2023-10-22T20:05:06.259Z,9.32
2023-10-22T20:08:08.667Z,9.36
2023-10-22T20:11:11.341Z,9.29
2023-10-22T20:14:13.768Z,9.30
2023-10-22T20:17:16.515Z,9.31
2023-10-22T20:20:19.038Z,9.25
2023-10-22T20:23:21.950Z,9.22
2023-10-22T20:26:25.406Z,9.14
2023-10-22T20:29:28.073Z,9.15
2023-10-22T20:32:30.509Z,9.01
2023-10-22T20:35:33.386Z,9.08
2023-10-22T20:38:35.778Z,9.08
2023-10-22T20:41:38.472Z,9.08
2023-10-22T20:44:41.011Z,8.98
2023-10-22T20:47:47.213Z,8.93
2023-10-22T20:50:49.662Z,8.96
2023-10-22T20:53:52.867Z,9.00
2023-10-22T20:56:55.283Z,8.97
2023-10-22T20:59:57.959Z,8.83
2023-10-22T21:03:00.439Z,8.80
2023-10-22T21:06:03.320Z,8.79
2023-10-22T21:09:05.729Z,8.77
2023-10-22T21:12:08.843Z,8.80
2023-10-22T21:15:11.423Z,8.78
2023-10-22T21:18:14.111Z,8.74
2023-10-22T21:21:16.656Z,8.81
2023-10-22T21:24:19.434Z,8.74
2023-10-22T21:27:21.804Z,8.83
2023-10-22T21:30:24.590Z,8.87
2023-10-22T21:33:27.778Z,8.79
2023-10-22T21:36:30.625Z,8.77
2023-10-22T21:39:33.112Z,8.75
2023-10-22T21:42:35.967Z,8.80
2023-10-22T21:45:38.544Z,8.80
2023-10-22T21:48:41.473Z,8.76
2023-10-22T21:51:43.949Z,8.53
2023-10-22T21:54:46.757Z,8.59
2023-10-22T21:57:51.403Z,8.60
2023-10-22T22:00:54.157Z,8.62
2023-10-22T22:03:57.067Z,8.50
2023-10-22T22:06:59.576Z,8.46
2023-10-22T22:10:02.241Z,8.31
2023-10-22T22:13:04.676Z,8.44
2023-10-22T22:16:07.468Z,8.37
2023-10-22T22:19:09.969Z,8.50
2023-10-22T22:22:12.600Z,8.47
2023-10-22T22:25:14.941Z,8.32
2023-10-22T22:28:17.666Z,8.40
2023-10-22T22:31:20.070Z,8.37
2023-10-22T22:34:22.820Z,8.36
2023-10-22T22:37:25.237Z,8.37
2023-10-22T22:40:27.814Z,8.25
2023-10-22T22:43:30.760Z,8.30
2023-10-22T22:46:33.499Z,8.34
2023-10-22T22:49:36.962Z,8.24
2023-10-22T22:52:39.575Z,8.21
2023-10-22T22:55:42.261Z,8.22
2023-10-22T22:58:44.916Z,8.28
2023-10-22T23:01:47.326Z,8.37
2023-10-22T23:04:50.082Z,8.34
2023-10-22T23:07:52.482Z,8.33
2023-10-22T23:10:55.158Z,8.29
2023-10-22T23:13:57.487Z,8.28
2023-10-22T23:17:00.241Z,8.30
2023-10-22T23:20:03.265Z,8.25
2023-10-22T23:23:05.897Z,8.25
2023-10-22T23:26:08.269Z,8.19
2023-10-22T23:29:10.923Z,8.15
2023-10-22T23:32:13.856Z,8.16
2023-10-22T23:35:16.486Z,8.17
2023-10-22T23:38:19.030Z,8.16
2023-10-22T23:41:21.664Z,8.17
2023-10-22T23:44:24.143Z,8.18
2023-10-22T23:47:26.780Z,8.13
2023-10-22T23:50:29.137Z,8.20
2023-10-22T23:53:31.967Z,8.18
2023-10-22T23:56:34.552Z,8.21
2023-10-22T23:59:37.156Z,8.20
